sensor_id;sensor_type;location;lat;lon;timestamp;P1;durP1;ratioP1;P2;durP2;ratioP2
52724;SDS011;38621;52.830;6.914;2023-06-10T00:02:04;3.75;;;2.42;;
52724;SDS011;38621;52.830;6.914;2023-06-10T00:04:30;6.15;;;2.88;;
52724;SDS011;38621;52.830;6.914;2023-06-10T00:06:56;4.78;;;2.80;;
52724;SDS011;38621;52.830;6.914;2023-06-10T00:09:22;5.75;;;2.95;;
52724;SDS011;38621;52.830;6.914;2023-06-10T00:11:48;5.20;;;2.78;;
52724;SDS011;38621;52.830;6.914;2023-06-10T00:14:13;4.70;;;2.95;;
52724;SDS011;38621;52.830;6.914;2023-06-10T00:16:39;5.03;;;3.00;;
52724;SDS011;38621;52.830;6.914;2023-06-10T00:19:05;5.85;;;2.80;;
52724;SDS011;38621;52.830;6.914;2023-06-10T00:21:32;6.72;;;3.08;;
52724;SDS011;38621;52.830;6.914;2023-06-10T00:24:08;5.03;;;2.60;;
52724;SDS011;38621;52.830;6.914;2023-06-10T00:26:39;6.10;;;3.08;;
52724;SDS011;38621;52.830;6.914;2023-06-10T00:29:05;5.93;;;3.08;;
52724;SDS011;38621;52.830;6.914;2023-06-10T00:31:32;5.95;;;2.63;;
52724;SDS011;38621;52.830;6.914;2023-06-10T00:33:59;5.78;;;2.95;;
52724;SDS011;38621;52.830;6.914;2023-06-10T00:36:25;4.60;;;2.88;;
52724;SDS011;38621;52.830;6.914;2023-06-10T00:38:50;4.88;;;2.80;;
52724;SDS011;38621;52.830;6.914;2023-06-10T00:41:16;6.15;;;2.97;;
52724;SDS011;38621;52.830;6.914;2023-06-10T00:43:42;5.63;;;3.53;;
52724;SDS011;38621;52.830;6.914;2023-06-10T00:46:08;4.95;;;2.90;;
52724;SDS011;38621;52.830;6.914;2023-06-10T00:48:34;5.97;;;3.03;;
52724;SDS011;38621;52.830;6.914;2023-06-10T00:51:00;6.93;;;3.10;;
52724;SDS011;38621;52.830;6.914;2023-06-10T00:53:26;6.32;;;3.13;;
52724;SDS011;38621;52.830;6.914;2023-06-10T00:55:53;5.65;;;3.05;;
52724;SDS011;38621;52.830;6.914;2023-06-10T00:58:19;5.90;;;3.13;;
52724;SDS011;38621;52.830;6.914;2023-06-10T01:00:44;5.13;;;3.10;;
52724;SDS011;38621;52.830;6.914;2023-06-10T01:03:11;5.38;;;2.92;;
52724;SDS011;38621;52.830;6.914;2023-06-10T01:05:37;5.07;;;3.17;;
52724;SDS011;38621;52.830;6.914;2023-06-10T01:08:08;5.80;;;3.47;;
52724;SDS011;38621;52.830;6.914;2023-06-10T01:10:50;6.47;;;3.67;;
52724;SDS011;38621;52.830;6.914;2023-06-10T01:13:20;5.45;;;3.42;;
52724;SDS011;38621;52.830;6.914;2023-06-10T01:15:49;7.22;;;3.88;;
52724;SDS011;38621;52.830;6.914;2023-06-10T01:18:16;5.95;;;3.67;;
52724;SDS011;38621;52.830;6.914;2023-06-10T01:20:43;4.57;;;3.33;;
52724;SDS011;38621;52.830;6.914;2023-06-10T01:23:09;4.55;;;3.17;;
52724;SDS011;38621;52.830;6.914;2023-06-10T01:25:37;5.30;;;3.20;;
52724;SDS011;38621;52.830;6.914;2023-06-10T01:30:41;6.00;;;3.22;;
52724;SDS011;38621;52.830;6.914;2023-06-10T01:33:14;5.30;;;3.38;;
52724;SDS011;38621;52.830;6.914;2023-06-10T01:35:44;5.35;;;3.67;;
52724;SDS011;38621;52.830;6.914;2023-06-10T01:38:12;6.20;;;3.40;;
52724;SDS011;38621;52.830;6.914;2023-06-10T01:40:39;5.60;;;3.80;;
52724;SDS011;38621;52.830;6.914;2023-06-10T01:43:06;5.20;;;3.65;;
52724;SDS011;38621;52.830;6.914;2023-06-10T01:45:31;6.28;;;3.88;;
52724;SDS011;38621;52.830;6.914;2023-06-10T01:47:57;6.65;;;3.95;;
52724;SDS011;38621;52.830;6.914;2023-06-10T01:50:23;5.60;;;3.33;;
52724;SDS011;38621;52.830;6.914;2023-06-10T01:52:48;5.20;;;3.67;;
52724;SDS011;38621;52.830;6.914;2023-06-10T01:55:14;6.85;;;3.83;;
52724;SDS011;38621;52.830;6.914;2023-06-10T01:57:40;7.47;;;3.92;;
52724;SDS011;38621;52.830;6.914;2023-06-10T02:00:06;6.07;;;3.75;;
52724;SDS011;38621;52.830;6.914;2023-06-10T02:02:32;5.82;;;3.55;;
52724;SDS011;38621;52.830;6.914;2023-06-10T02:04:58;7.57;;;3.42;;
52724;SDS011;38621;52.830;6.914;2023-06-10T02:07:24;5.60;;;3.28;;
52724;SDS011;38621;52.830;6.914;2023-06-10T02:09:49;6.50;;;3.90;;
52724;SDS011;38621;52.830;6.914;2023-06-10T02:12:15;7.40;;;3.47;;
52724;SDS011;38621;52.830;6.914;2023-06-10T02:14:41;5.32;;;3.50;;
52724;SDS011;38621;52.830;6.914;2023-06-10T02:17:07;6.22;;;3.53;;
52724;SDS011;38621;52.830;6.914;2023-06-10T02:19:37;5.68;;;3.60;;
52724;SDS011;38621;52.830;6.914;2023-06-10T02:22:07;6.20;;;3.83;;
52724;SDS011;38621;52.830;6.914;2023-06-10T02:24:33;7.18;;;3.67;;
52724;SDS011;38621;52.830;6.914;2023-06-10T02:27:00;7.22;;;3.45;;
52724;SDS011;38621;52.830;6.914;2023-06-10T02:29:26;5.88;;;3.60;;
52724;SDS011;38621;52.830;6.914;2023-06-10T02:31:52;7.05;;;3.30;;
52724;SDS011;38621;52.830;6.914;2023-06-10T02:34:18;5.45;;;3.30;;
52724;SDS011;38621;52.830;6.914;2023-06-10T02:36:43;6.20;;;3.90;;
52724;SDS011;38621;52.830;6.914;2023-06-10T02:39:09;6.60;;;3.40;;
52724;SDS011;38621;52.830;6.914;2023-06-10T02:41:35;6.28;;;3.60;;
52724;SDS011;38621;52.830;6.914;2023-06-10T02:44:01;6.38;;;3.55;;
52724;SDS011;38621;52.830;6.914;2023-06-10T02:46:26;4.47;;;3.15;;
52724;SDS011;38621;52.830;6.914;2023-06-10T02:48:53;6.88;;;3.25;;
52724;SDS011;38621;52.830;6.914;2023-06-10T02:51:19;6.18;;;3.47;;
52724;SDS011;38621;52.830;6.914;2023-06-10T02:53:46;8.15;;;3.40;;
52724;SDS011;38621;52.830;6.914;2023-06-10T02:56:11;6.00;;;3.60;;
52724;SDS011;38621;52.830;6.914;2023-06-10T02:58:38;4.82;;;3.33;;
52724;SDS011;38621;52.830;6.914;2023-06-10T03:01:04;5.72;;;3.22;;
52724;SDS011;38621;52.830;6.914;2023-06-10T03:03:30;6.93;;;3.30;;
52724;SDS011;38621;52.830;6.914;2023-06-10T03:05:55;8.43;;;3.85;;
52724;SDS011;38621;52.830;6.914;2023-06-10T03:08:21;6.18;;;3.38;;
52724;SDS011;38621;52.830;6.914;2023-06-10T03:10:47;4.75;;;3.40;;
52724;SDS011;38621;52.830;6.914;2023-06-10T03:13:13;4.53;;;3.20;;
52724;SDS011;38621;52.830;6.914;2023-06-10T03:15:39;8.10;;;3.70;;
52724;SDS011;38621;52.830;6.914;2023-06-10T03:18:06;5.65;;;3.08;;
52724;SDS011;38621;52.830;6.914;2023-06-10T03:20:32;6.90;;;3.35;;
52724;SDS011;38621;52.830;6.914;2023-06-10T03:23:02;5.90;;;3.38;;
52724;SDS011;38621;52.830;6.914;2023-06-10T03:25:27;5.22;;;2.95;;
52724;SDS011;38621;52.830;6.914;2023-06-10T03:27:53;5.85;;;3.70;;
52724;SDS011;38621;52.830;6.914;2023-06-10T03:30:19;4.40;;;3.13;;
52724;SDS011;38621;52.830;6.914;2023-06-10T03:32:45;5.13;;;3.33;;
52724;SDS011;38621;52.830;6.914;2023-06-10T03:35:10;5.88;;;3.17;;
52724;SDS011;38621;52.830;6.914;2023-06-10T03:37:37;6.00;;;2.92;;
52724;SDS011;38621;52.830;6.914;2023-06-10T03:40:02;6.78;;;3.17;;
52724;SDS011;38621;52.830;6.914;2023-06-10T03:42:28;6.65;;;3.47;;
52724;SDS011;38621;52.830;6.914;2023-06-10T03:44:54;5.72;;;3.30;;
52724;SDS011;38621;52.830;6.914;2023-06-10T03:47:21;5.75;;;2.83;;
52724;SDS011;38621;52.830;6.914;2023-06-10T03:49:46;6.40;;;3.25;;
52724;SDS011;38621;52.830;6.914;2023-06-10T03:52:12;6.45;;;3.38;;
52724;SDS011;38621;52.830;6.914;2023-06-10T03:54:38;6.32;;;3.42;;
52724;SDS011;38621;52.830;6.914;2023-06-10T03:57:04;5.97;;;3.28;;
52724;SDS011;38621;52.830;6.914;2023-06-10T03:59:31;6.22;;;3.22;;
52724;SDS011;38621;52.830;6.914;2023-06-10T04:01:56;5.70;;;3.38;;
52724;SDS011;38621;52.830;6.914;2023-06-10T04:04:22;7.20;;;3.38;;
52724;SDS011;38621;52.830;6.914;2023-06-10T04:06:48;4.82;;;2.75;;
52724;SDS011;38621;52.830;6.914;2023-06-10T04:09:14;6.45;;;3.88;;
52724;SDS011;38621;52.830;6.914;2023-06-10T04:11:41;8.02;;;3.53;;
52724;SDS011;38621;52.830;6.914;2023-06-10T04:14:07;5.25;;;2.72;;
52724;SDS011;38621;52.830;6.914;2023-06-10T04:16:33;6.15;;;3.40;;
52724;SDS011;38621;52.830;6.914;2023-06-10T04:19:00;9.73;;;3.85;;
52724;SDS011;38621;52.830;6.914;2023-06-10T04:21:26;5.72;;;3.75;;
52724;SDS011;38621;52.830;6.914;2023-06-10T04:23:52;6.35;;;3.50;;
52724;SDS011;38621;52.830;6.914;2023-06-10T04:26:18;6.80;;;3.67;;
52724;SDS011;38621;52.830;6.914;2023-06-10T04:28:44;6.72;;;3.85;;
52724;SDS011;38621;52.830;6.914;2023-06-10T04:31:10;5.93;;;3.55;;
52724;SDS011;38621;52.830;6.914;2023-06-10T04:33:35;5.20;;;3.40;;
52724;SDS011;38621;52.830;6.914;2023-06-10T04:36:01;7.20;;;3.72;;
52724;SDS011;38621;52.830;6.914;2023-06-10T04:38:27;6.20;;;3.65;;
52724;SDS011;38621;52.830;6.914;2023-06-10T04:40:53;7.00;;;3.88;;
52724;SDS011;38621;52.830;6.914;2023-06-10T04:43:19;5.38;;;3.50;;
52724;SDS011;38621;52.830;6.914;2023-06-10T04:45:44;6.32;;;3.42;;
52724;SDS011;38621;52.830;6.914;2023-06-10T04:48:10;6.72;;;3.53;;
52724;SDS011;38621;52.830;6.914;2023-06-10T04:50:36;5.68;;;3.67;;
52724;SDS011;38621;52.830;6.914;2023-06-10T04:53:02;5.85;;;3.47;;
52724;SDS011;38621;52.830;6.914;2023-06-10T04:55:28;6.22;;;3.58;;
52724;SDS011;38621;52.830;6.914;2023-06-10T04:57:54;5.97;;;3.75;;
52724;SDS011;38621;52.830;6.914;2023-06-10T05:00:20;4.70;;;3.35;;
52724;SDS011;38621;52.830;6.914;2023-06-10T05:02:46;6.97;;;3.45;;
52724;SDS011;38621;52.830;6.914;2023-06-10T05:05:15;6.25;;;3.88;;
52724;SDS011;38621;52.830;6.914;2023-06-10T05:07:41;6.15;;;4.18;;
52724;SDS011;38621;52.830;6.914;2023-06-10T05:10:07;7.40;;;3.72;;
52724;SDS011;38621;52.830;6.914;2023-06-10T05:12:33;6.78;;;3.38;;
52724;SDS011;38621;52.830;6.914;2023-06-10T05:14:59;6.45;;;3.58;;
52724;SDS011;38621;52.830;6.914;2023-06-10T05:17:25;7.57;;;3.75;;
52724;SDS011;38621;52.830;6.914;2023-06-10T05:19:51;5.60;;;3.70;;
52724;SDS011;38621;52.830;6.914;2023-06-10T05:22:16;6.65;;;3.40;;
52724;SDS011;38621;52.830;6.914;2023-06-10T05:24:43;6.82;;;3.80;;
52724;SDS011;38621;52.830;6.914;2023-06-10T05:27:09;6.22;;;3.70;;
52724;SDS011;38621;52.830;6.914;2023-06-10T05:29:35;5.78;;;4.00;;
52724;SDS011;38621;52.830;6.914;2023-06-10T05:32:01;7.40;;;3.47;;
52724;SDS011;38621;52.830;6.914;2023-06-10T05:34:31;6.75;;;3.60;;
52724;SDS011;38621;52.830;6.914;2023-06-10T05:36:57;8.48;;;3.80;;
52724;SDS011;38621;52.830;6.914;2023-06-10T05:39:23;5.88;;;3.85;;
52724;SDS011;38621;52.830;6.914;2023-06-10T05:41:48;6.03;;;3.70;;
52724;SDS011;38621;52.830;6.914;2023-06-10T05:44:14;5.55;;;3.10;;
52724;SDS011;38621;52.830;6.914;2023-06-10T05:46:40;6.57;;;3.80;;
52724;SDS011;38621;52.830;6.914;2023-06-10T05:49:06;5.85;;;3.90;;
52724;SDS011;38621;52.830;6.914;2023-06-10T05:51:31;7.18;;;3.88;;
52724;SDS011;38621;52.830;6.914;2023-06-10T05:53:57;4.85;;;3.40;;
52724;SDS011;38621;52.830;6.914;2023-06-10T05:56:23;7.28;;;3.33;;
52724;SDS011;38621;52.830;6.914;2023-06-10T05:58:49;7.40;;;3.70;;
52724;SDS011;38621;52.830;6.914;2023-06-10T06:01:15;8.35;;;3.47;;
52724;SDS011;38621;52.830;6.914;2023-06-10T06:03:40;5.75;;;3.80;;
52724;SDS011;38621;52.830;6.914;2023-06-10T06:06:06;5.82;;;3.70;;
52724;SDS011;38621;52.830;6.914;2023-06-10T06:08:32;5.55;;;3.38;;
52724;SDS011;38621;52.830;6.914;2023-06-10T06:10:58;8.05;;;3.85;;
52724;SDS011;38621;52.830;6.914;2023-06-10T06:13:23;5.60;;;3.60;;
52724;SDS011;38621;52.830;6.914;2023-06-10T06:15:49;6.55;;;3.72;;
52724;SDS011;38621;52.830;6.914;2023-06-10T06:18:15;7.07;;;3.53;;
52724;SDS011;38621;52.830;6.914;2023-06-10T06:20:41;6.43;;;3.70;;
52724;SDS011;38621;52.830;6.914;2023-06-10T06:23:07;5.72;;;3.47;;
52724;SDS011;38621;52.830;6.914;2023-06-10T06:25:35;6.25;;;3.72;;
52724;SDS011;38621;52.830;6.914;2023-06-10T06:28:01;5.63;;;3.60;;
52724;SDS011;38621;52.830;6.914;2023-06-10T06:30:27;6.32;;;3.97;;
52724;SDS011;38621;52.830;6.914;2023-06-10T06:32:53;6.82;;;3.47;;
52724;SDS011;38621;52.830;6.914;2023-06-10T06:35:18;6.00;;;3.58;;
52724;SDS011;38621;52.830;6.914;2023-06-10T06:37:44;8.00;;;5.05;;
52724;SDS011;38621;52.830;6.914;2023-06-10T06:40:10;6.57;;;3.90;;
52724;SDS011;38621;52.830;6.914;2023-06-10T06:42:36;6.40;;;3.65;;
52724;SDS011;38621;52.830;6.914;2023-06-10T06:45:02;6.03;;;3.67;;
52724;SDS011;38621;52.830;6.914;2023-06-10T06:47:27;6.75;;;3.83;;
52724;SDS011;38621;52.830;6.914;2023-06-10T06:49:53;8.02;;;3.95;;
52724;SDS011;38621;52.830;6.914;2023-06-10T06:52:19;6.18;;;4.25;;
52724;SDS011;38621;52.830;6.914;2023-06-10T06:54:45;7.28;;;3.83;;
52724;SDS011;38621;52.830;6.914;2023-06-10T06:57:10;5.30;;;3.72;;
52724;SDS011;38621;52.830;6.914;2023-06-10T06:59:36;6.22;;;4.00;;
52724;SDS011;38621;52.830;6.914;2023-06-10T07:02:02;5.32;;;3.85;;
52724;SDS011;38621;52.830;6.914;2023-06-10T07:04:28;5.90;;;4.20;;
52724;SDS011;38621;52.830;6.914;2023-06-10T07:06:54;6.38;;;4.10;;
52724;SDS011;38621;52.830;6.914;2023-06-10T07:09:19;6.13;;;4.13;;
52724;SDS011;38621;52.830;6.914;2023-06-10T07:11:45;7.05;;;4.20;;
52724;SDS011;38621;52.830;6.914;2023-06-10T07:14:11;6.70;;;4.10;;
52724;SDS011;38621;52.830;6.914;2023-06-10T07:16:37;8.10;;;5.10;;
52724;SDS011;38621;52.830;6.914;2023-06-10T07:19:02;8.43;;;4.82;;
52724;SDS011;38621;52.830;6.914;2023-06-10T07:21:29;7.68;;;5.35;;
52724;SDS011;38621;52.830;6.914;2023-06-10T07:23:55;8.98;;;5.03;;
52724;SDS011;38621;52.830;6.914;2023-06-10T07:26:24;8.25;;;5.32;;
52724;SDS011;38621;52.830;6.914;2023-06-10T07:28:51;9.65;;;5.28;;
52724;SDS011;38621;52.830;6.914;2023-06-10T07:31:17;8.43;;;5.30;;
52724;SDS011;38621;52.830;6.914;2023-06-10T07:33:42;8.75;;;5.20;;
52724;SDS011;38621;52.830;6.914;2023-06-10T07:36:08;9.35;;;6.05;;
52724;SDS011;38621;52.830;6.914;2023-06-10T07:38:34;7.97;;;5.53;;
52724;SDS011;38621;52.830;6.914;2023-06-10T07:41:00;9.43;;;5.68;;
52724;SDS011;38621;52.830;6.914;2023-06-10T07:43:26;9.15;;;5.78;;
52724;SDS011;38621;52.830;6.914;2023-06-10T07:45:52;7.22;;;5.68;;
52724;SDS011;38621;52.830;6.914;2023-06-10T07:48:18;8.32;;;5.88;;
52724;SDS011;38621;52.830;6.914;2023-06-10T07:50:44;7.60;;;5.50;;
52724;SDS011;38621;52.830;6.914;2023-06-10T07:53:09;6.93;;;5.50;;
52724;SDS011;38621;52.830;6.914;2023-06-10T07:55:35;9.55;;;5.90;;
52724;SDS011;38621;52.830;6.914;2023-06-10T07:58:01;8.30;;;5.75;;
52724;SDS011;38621;52.830;6.914;2023-06-10T08:00:27;7.82;;;5.35;;
52724;SDS011;38621;52.830;6.914;2023-06-10T08:02:52;7.47;;;5.30;;
52724;SDS011;38621;52.830;6.914;2023-06-10T08:05:18;8.07;;;5.60;;
52724;SDS011;38621;52.830;6.914;2023-06-10T08:07:44;7.55;;;5.40;;
52724;SDS011;38621;52.830;6.914;2023-06-10T08:10:10;6.25;;;4.75;;
52724;SDS011;38621;52.830;6.914;2023-06-10T08:12:35;6.00;;;4.90;;
52724;SDS011;38621;52.830;6.914;2023-06-10T08:15:02;5.90;;;4.65;;
52724;SDS011;38621;52.830;6.914;2023-06-10T08:17:29;7.57;;;5.28;;
52724;SDS011;38621;52.830;6.914;2023-06-10T08:19:55;6.78;;;4.53;;
52724;SDS011;38621;52.830;6.914;2023-06-10T08:22:20;7.05;;;5.05;;
52724;SDS011;38621;52.830;6.914;2023-06-10T08:24:46;5.90;;;4.38;;
52724;SDS011;38621;52.830;6.914;2023-06-10T08:27:12;5.90;;;4.40;;
52724;SDS011;38621;52.830;6.914;2023-06-10T08:29:37;6.43;;;4.40;;
52724;SDS011;38621;52.830;6.914;2023-06-10T08:32:04;6.38;;;4.00;;
52724;SDS011;38621;52.830;6.914;2023-06-10T08:34:30;6.88;;;3.78;;
52724;SDS011;38621;52.830;6.914;2023-06-10T08:36:55;7.00;;;4.13;;
52724;SDS011;38621;52.830;6.914;2023-06-10T08:39:21;5.93;;;4.32;;
52724;SDS011;38621;52.830;6.914;2023-06-10T08:44:35;5.85;;;3.72;;
52724;SDS011;38621;52.830;6.914;2023-06-10T08:47:06;5.43;;;3.60;;
52724;SDS011;38621;52.830;6.914;2023-06-10T08:49:38;5.00;;;3.65;;
52724;SDS011;38621;52.830;6.914;2023-06-10T08:52:06;5.80;;;4.10;;
52724;SDS011;38621;52.830;6.914;2023-06-10T08:54:33;5.88;;;3.80;;
52724;SDS011;38621;52.830;6.914;2023-06-10T08:57:03;4.95;;;3.50;;
52724;SDS011;38621;52.830;6.914;2023-06-10T08:59:33;5.22;;;3.33;;
52724;SDS011;38621;52.830;6.914;2023-06-10T09:01:59;4.18;;;3.33;;
52724;SDS011;38621;52.830;6.914;2023-06-10T09:04:27;5.63;;;3.42;;
52724;SDS011;38621;52.830;6.914;2023-06-10T09:06:53;4.35;;;2.90;;
52724;SDS011;38621;52.830;6.914;2023-06-10T09:09:20;5.78;;;3.13;;
52724;SDS011;38621;52.830;6.914;2023-06-10T09:11:47;4.30;;;3.15;;
52724;SDS011;38621;52.830;6.914;2023-06-10T09:14:13;4.97;;;2.83;;
52724;SDS011;38621;52.830;6.914;2023-06-10T09:16:39;5.68;;;2.67;;
52724;SDS011;38621;52.830;6.914;2023-06-10T09:19:07;4.30;;;3.15;;
52724;SDS011;38621;52.830;6.914;2023-06-10T09:21:35;4.35;;;3.20;;
52724;SDS011;38621;52.830;6.914;2023-06-10T09:24:01;4.38;;;2.90;;
52724;SDS011;38621;52.830;6.914;2023-06-10T09:26:30;6.45;;;3.38;;
52724;SDS011;38621;52.830;6.914;2023-06-10T09:29:05;3.95;;;2.92;;
52724;SDS011;38621;52.830;6.914;2023-06-10T09:31:36;5.18;;;3.13;;
52724;SDS011;38621;52.830;6.914;2023-06-10T09:36:36;4.53;;;2.60;;
52724;SDS011;38621;52.830;6.914;2023-06-10T09:39:03;4.43;;;2.67;;
52724;SDS011;38621;52.830;6.914;2023-06-10T09:41:39;3.65;;;2.80;;
52724;SDS011;38621;52.830;6.914;2023-06-10T09:44:15;4.90;;;3.00;;
52724;SDS011;38621;52.830;6.914;2023-06-10T09:46:42;6.45;;;2.70;;
52724;SDS011;38621;52.830;6.914;2023-06-10T09:49:10;4.50;;;2.40;;
52724;SDS011;38621;52.830;6.914;2023-06-10T09:51:36;5.43;;;2.70;;
52724;SDS011;38621;52.830;6.914;2023-06-10T09:54:02;3.58;;;2.38;;
52724;SDS011;38621;52.830;6.914;2023-06-10T09:56:35;4.75;;;2.20;;
52724;SDS011;38621;52.830;6.914;2023-06-10T09:59:02;2.95;;;2.20;;
52724;SDS011;38621;52.830;6.914;2023-06-10T10:01:29;3.80;;;2.65;;
52724;SDS011;38621;52.830;6.914;2023-06-10T10:03:56;3.88;;;2.47;;
52724;SDS011;38621;52.830;6.914;2023-06-10T10:06:22;4.15;;;2.40;;
52724;SDS011;38621;52.830;6.914;2023-06-10T10:08:49;3.55;;;2.30;;
52724;SDS011;38621;52.830;6.914;2023-06-10T10:11:19;3.88;;;2.30;;
52724;SDS011;38621;52.830;6.914;2023-06-10T10:13:47;5.72;;;2.17;;
52724;SDS011;38621;52.830;6.914;2023-06-10T10:16:18;3.03;;;2.25;;
52724;SDS011;38621;52.830;6.914;2023-06-10T10:18:47;3.13;;;2.35;;
52724;SDS011;38621;52.830;6.914;2023-06-10T10:21:19;3.08;;;1.83;;
52724;SDS011;38621;52.830;6.914;2023-06-10T10:26:30;4.20;;;2.28;;
52724;SDS011;38621;52.830;6.914;2023-06-10T10:31:45;4.15;;;2.08;;
52724;SDS011;38621;52.830;6.914;2023-06-10T10:34:16;2.45;;;1.63;;
52724;SDS011;38621;52.830;6.914;2023-06-10T10:36:48;3.97;;;2.03;;
52724;SDS011;38621;52.830;6.914;2023-06-10T10:39:15;4.18;;;2.28;;
52724;SDS011;38621;52.830;6.914;2023-06-10T10:41:41;3.13;;;2.17;;
52724;SDS011;38621;52.830;6.914;2023-06-10T10:44:07;3.92;;;2.25;;
52724;SDS011;38621;52.830;6.914;2023-06-10T10:46:52;3.50;;;2.05;;
52724;SDS011;38621;52.830;6.914;2023-06-10T10:49:19;3.00;;;1.90;;
52724;SDS011;38621;52.830;6.914;2023-06-10T10:51:57;3.17;;;2.40;;
52724;SDS011;38621;52.830;6.914;2023-06-10T10:54:31;3.28;;;1.95;;
52724;SDS011;38621;52.830;6.914;2023-06-10T10:57:14;2.55;;;1.60;;
52724;SDS011;38621;52.830;6.914;2023-06-10T10:59:59;3.20;;;2.10;;
52724;SDS011;38621;52.830;6.914;2023-06-10T11:04:57;2.60;;;1.77;;
52724;SDS011;38621;52.830;6.914;2023-06-10T11:07:24;4.47;;;1.73;;
52724;SDS011;38621;52.830;6.914;2023-06-10T11:10:00;3.55;;;2.00;;
52724;SDS011;38621;52.830;6.914;2023-06-10T11:15:12;2.67;;;1.77;;
52724;SDS011;38621;52.830;6.914;2023-06-10T11:17:59;3.20;;;1.50;;
52724;SDS011;38621;52.830;6.914;2023-06-10T11:31:23;3.88;;;1.75;;
52724;SDS011;38621;52.830;6.914;2023-06-10T11:33:52;2.65;;;1.77;;
52724;SDS011;38621;52.830;6.914;2023-06-10T11:36:21;4.50;;;1.95;;
52724;SDS011;38621;52.830;6.914;2023-06-10T11:38:48;2.60;;;1.67;;
52724;SDS011;38621;52.830;6.914;2023-06-10T11:41:14;3.15;;;1.63;;
52724;SDS011;38621;52.830;6.914;2023-06-10T11:43:42;2.15;;;1.50;;
52724;SDS011;38621;52.830;6.914;2023-06-10T11:46:09;2.50;;;1.70;;
52724;SDS011;38621;52.830;6.914;2023-06-10T11:48:35;2.55;;;1.63;;
52724;SDS011;38621;52.830;6.914;2023-06-10T11:51:05;2.67;;;1.60;;
52724;SDS011;38621;52.830;6.914;2023-06-10T11:53:31;2.60;;;1.52;;
52724;SDS011;38621;52.830;6.914;2023-06-10T11:55:57;2.97;;;1.70;;
52724;SDS011;38621;52.830;6.914;2023-06-10T11:58:23;3.13;;;1.55;;
52724;SDS011;38621;52.830;6.914;2023-06-10T12:00:50;2.67;;;1.60;;
52724;SDS011;38621;52.830;6.914;2023-06-10T12:03:18;2.65;;;1.67;;
52724;SDS011;38621;52.830;6.914;2023-06-10T12:05:58;2.30;;;1.67;;
52724;SDS011;38621;52.830;6.914;2023-06-10T12:08:25;3.70;;;1.63;;
52724;SDS011;38621;52.830;6.914;2023-06-10T12:10:52;2.95;;;1.80;;
52724;SDS011;38621;52.830;6.914;2023-06-10T12:13:19;3.33;;;1.70;;
52724;SDS011;38621;52.830;6.914;2023-06-10T12:15:45;2.88;;;1.50;;
52724;SDS011;38621;52.830;6.914;2023-06-10T12:18:18;2.80;;;1.63;;
52724;SDS011;38621;52.830;6.914;2023-06-10T12:20:48;4.28;;;1.50;;
52724;SDS011;38621;52.830;6.914;2023-06-10T12:23:15;2.80;;;1.83;;
52724;SDS011;38621;52.830;6.914;2023-06-10T12:25:51;3.00;;;1.70;;
52724;SDS011;38621;52.830;6.914;2023-06-10T12:28:25;3.30;;;1.70;;
52724;SDS011;38621;52.830;6.914;2023-06-10T12:30:51;2.00;;;1.42;;
52724;SDS011;38621;52.830;6.914;2023-06-10T12:33:32;4.38;;;1.60;;
52724;SDS011;38621;52.830;6.914;2023-06-10T12:35:58;2.08;;;1.38;;
52724;SDS011;38621;52.830;6.914;2023-06-10T12:38:24;3.13;;;1.50;;
52724;SDS011;38621;52.830;6.914;2023-06-10T12:40:54;2.63;;;1.38;;
52724;SDS011;38621;52.830;6.914;2023-06-10T12:43:26;2.15;;;1.35;;
52724;SDS011;38621;52.830;6.914;2023-06-10T12:45:51;2.17;;;1.35;;
52724;SDS011;38621;52.830;6.914;2023-06-10T12:50:56;2.40;;;1.60;;
52724;SDS011;38621;52.830;6.914;2023-06-10T12:53:23;2.75;;;1.70;;
52724;SDS011;38621;52.830;6.914;2023-06-10T12:55:51;3.55;;;1.70;;
52724;SDS011;38621;52.830;6.914;2023-06-10T12:58:18;3.63;;;1.50;;
52724;SDS011;38621;52.830;6.914;2023-06-10T13:00:48;2.40;;;1.60;;
52724;SDS011;38621;52.830;6.914;2023-06-10T13:03:17;2.38;;;1.50;;
52724;SDS011;38621;52.830;6.914;2023-06-10T13:05:43;2.72;;;1.70;;
52724;SDS011;38621;52.830;6.914;2023-06-10T13:08:09;2.10;;;1.60;;
52724;SDS011;38621;52.830;6.914;2023-06-10T13:10:37;2.58;;;1.65;;
52724;SDS011;38621;52.830;6.914;2023-06-10T13:13:03;3.05;;;1.70;;
52724;SDS011;38621;52.830;6.914;2023-06-10T13:15:31;2.58;;;1.60;;
52724;SDS011;38621;52.830;6.914;2023-06-10T13:17:57;2.30;;;1.75;;
52724;SDS011;38621;52.830;6.914;2023-06-10T13:20:23;2.42;;;1.80;;
52724;SDS011;38621;52.830;6.914;2023-06-10T13:22:49;2.58;;;1.60;;
52724;SDS011;38621;52.830;6.914;2023-06-10T13:25:15;2.28;;;1.60;;
52724;SDS011;38621;52.830;6.914;2023-06-10T13:27:41;2.83;;;1.70;;
52724;SDS011;38621;52.830;6.914;2023-06-10T13:30:07;4.68;;;1.98;;
52724;SDS011;38621;52.830;6.914;2023-06-10T13:32:35;3.45;;;1.92;;
52724;SDS011;38621;52.830;6.914;2023-06-10T13:35:01;3.15;;;1.77;;
52724;SDS011;38621;52.830;6.914;2023-06-10T13:37:28;3.28;;;1.70;;
52724;SDS011;38621;52.830;6.914;2023-06-10T13:39:53;2.92;;;1.73;;
52724;SDS011;38621;52.830;6.914;2023-06-10T13:42:19;3.00;;;1.85;;
52724;SDS011;38621;52.830;6.914;2023-06-10T13:44:46;2.30;;;1.55;;
52724;SDS011;38621;52.830;6.914;2023-06-10T13:47:16;2.40;;;1.60;;
52724;SDS011;38621;52.830;6.914;2023-06-10T13:49:42;2.67;;;1.80;;
52724;SDS011;38621;52.830;6.914;2023-06-10T13:52:08;2.45;;;1.60;;
52724;SDS011;38621;52.830;6.914;2023-06-10T13:54:34;2.83;;;1.90;;
52724;SDS011;38621;52.830;6.914;2023-06-10T13:57:03;2.92;;;2.17;;
52724;SDS011;38621;52.830;6.914;2023-06-10T13:59:29;3.22;;;2.00;;
52724;SDS011;38621;52.830;6.914;2023-06-10T14:01:55;2.65;;;1.70;;
52724;SDS011;38621;52.830;6.914;2023-06-10T14:04:21;4.30;;;2.00;;
52724;SDS011;38621;52.830;6.914;2023-06-10T14:06:47;2.20;;;1.85;;
52724;SDS011;38621;52.830;6.914;2023-06-10T14:09:13;3.22;;;2.00;;
52724;SDS011;38621;52.830;6.914;2023-06-10T14:11:39;3.70;;;2.00;;
52724;SDS011;38621;52.830;6.914;2023-06-10T14:14:05;3.47;;;2.10;;
52724;SDS011;38621;52.830;6.914;2023-06-10T14:16:31;3.10;;;2.20;;
52724;SDS011;38621;52.830;6.914;2023-06-10T14:18:57;3.85;;;2.03;;
52724;SDS011;38621;52.830;6.914;2023-06-10T14:21:22;3.25;;;2.00;;
52724;SDS011;38621;52.830;6.914;2023-06-10T14:23:48;3.50;;;2.00;;
52724;SDS011;38621;52.830;6.914;2023-06-10T14:26:15;2.88;;;1.98;;
52724;SDS011;38621;52.830;6.914;2023-06-10T14:28:40;2.45;;;1.95;;
52724;SDS011;38621;52.830;6.914;2023-06-10T14:31:06;3.90;;;2.20;;
52724;SDS011;38621;52.830;6.914;2023-06-10T14:33:32;6.15;;;1.98;;
52724;SDS011;38621;52.830;6.914;2023-06-10T14:35:58;3.65;;;2.10;;
52724;SDS011;38621;52.830;6.914;2023-06-10T14:38:24;2.70;;;2.10;;
52724;SDS011;38621;52.830;6.914;2023-06-10T14:40:50;3.58;;;1.90;;
52724;SDS011;38621;52.830;6.914;2023-06-10T14:43:17;3.60;;;1.80;;
52724;SDS011;38621;52.830;6.914;2023-06-10T14:45:43;2.55;;;1.85;;
52724;SDS011;38621;52.830;6.914;2023-06-10T14:48:10;3.35;;;2.22;;
52724;SDS011;38621;52.830;6.914;2023-06-10T14:50:36;3.10;;;1.90;;
52724;SDS011;38621;52.830;6.914;2023-06-10T14:53:02;2.70;;;1.67;;
52724;SDS011;38621;52.830;6.914;2023-06-10T14:55:28;3.35;;;1.95;;
52724;SDS011;38621;52.830;6.914;2023-06-10T14:57:54;2.50;;;1.83;;
52724;SDS011;38621;52.830;6.914;2023-06-10T15:00:21;3.13;;;2.00;;
52724;SDS011;38621;52.830;6.914;2023-06-10T15:02:49;2.80;;;1.80;;
52724;SDS011;38621;52.830;6.914;2023-06-10T15:05:15;2.80;;;1.75;;
52724;SDS011;38621;52.830;6.914;2023-06-10T15:07:42;4.13;;;2.08;;
52724;SDS011;38621;52.830;6.914;2023-06-10T15:10:08;2.97;;;1.80;;
52724;SDS011;38621;52.830;6.914;2023-06-10T15:12:34;2.60;;;1.73;;
52724;SDS011;38621;52.830;6.914;2023-06-10T15:15:00;3.75;;;1.80;;
52724;SDS011;38621;52.830;6.914;2023-06-10T15:17:27;3.22;;;1.65;;
52724;SDS011;38621;52.830;6.914;2023-06-10T15:19:53;3.45;;;1.90;;